createdAt,value
2022-12-14T00:00:04.520Z,16.52
2022-12-14T00:06:55.124Z,18.35
2022-12-14T00:13:38.297Z,16.13
2022-12-14T00:20:21.190Z,14.63
2022-12-14T00:27:03.554Z,15.30
2022-12-14T00:33:46.204Z,13.82
2022-12-14T00:40:29.283Z,13.70
2022-12-14T00:47:11.617Z,14.95
2022-12-14T00:53:53.912Z,12.73
2022-12-14T01:00:36.289Z,13.57
2022-12-14T01:07:18.619Z,12.80
2022-12-14T01:14:01.103Z,14.65
2022-12-14T01:20:43.423Z,15.20
2022-12-14T01:27:25.781Z,13.43
2022-12-14T01:34:09.104Z,14.88
2022-12-14T01:40:57.745Z,15.93
2022-12-14T01:47:43.817Z,13.02
2022-12-14T01:54:28.854Z,14.05
2022-12-14T02:01:11.626Z,13.55
2022-12-14T02:07:56.427Z,14.98
2022-12-14T02:14:39.048Z,16.50
2022-12-14T02:21:47.392Z,15.38
2022-12-14T02:28:51.311Z,15.23
2022-12-14T02:35:48.684Z,15.35
2022-12-14T02:43:00.703Z,14.50
2022-12-14T02:50:02.921Z,15.40
2022-12-14T02:56:51.495Z,17.27
2022-12-14T03:03:33.849Z,22.08
2022-12-14T03:10:29.553Z,17.73
2022-12-14T03:17:19.883Z,17.65
2022-12-14T03:24:08.342Z,15.65
2022-12-14T03:31:03.689Z,16.27
2022-12-14T03:37:54.464Z,21.83
2022-12-14T03:45:00.938Z,19.08
2022-12-14T03:51:54.345Z,16.55
2022-12-14T03:58:40.599Z,18.30
2022-12-14T04:05:36.482Z,21.02
2022-12-14T04:12:51.556Z,19.15
2022-12-14T04:19:49.313Z,20.08
2022-12-14T04:26:40.551Z,19.35
2022-12-14T04:33:41.973Z,19.95
2022-12-14T04:40:31.373Z,21.42
2022-12-14T04:47:17.716Z,22.52
2022-12-14T04:54:08.520Z,21.55
2022-12-14T05:01:03.900Z,21.48
2022-12-14T05:08:17.598Z,19.50
2022-12-14T05:15:10.351Z,21.20
2022-12-14T05:21:54.300Z,19.27
2022-12-14T05:28:36.643Z,21.15
2022-12-14T05:35:19.245Z,19.20
2022-12-14T05:42:02.062Z,22.83
2022-12-14T05:48:48.997Z,31.35
2022-12-14T05:55:31.783Z,28.08
2022-12-14T06:02:14.401Z,23.13
2022-12-14T06:08:56.806Z,20.77
2022-12-14T06:15:39.154Z,25.50
2022-12-14T06:22:21.526Z,23.38
2022-12-14T06:29:04.575Z,22.85
2022-12-14T06:35:47.753Z,24.35
2022-12-14T06:42:30.123Z,27.65
2022-12-14T06:49:14.627Z,28.75
2022-12-14T06:56:17.537Z,28.33
2022-12-14T07:03:00.106Z,26.30
2022-12-14T07:09:42.580Z,31.48
2022-12-14T07:16:26.782Z,34.28
2022-12-14T07:23:09.105Z,30.20
2022-12-14T07:29:52.214Z,33.78
2022-12-14T07:36:34.750Z,32.50
2022-12-14T07:43:18.750Z,33.13
2022-12-14T07:50:01.074Z,29.10
2022-12-14T07:56:46.537Z,34.65
2022-12-14T08:03:29.400Z,29.58
2022-12-14T08:10:11.975Z,30.55
2022-12-14T08:16:54.308Z,31.45
2022-12-14T08:23:37.553Z,31.05
2022-12-14T08:30:21.976Z,31.42
2022-12-14T08:37:04.308Z,30.58
2022-12-14T08:43:50.919Z,32.58
2022-12-14T08:50:33.253Z,27.60
2022-12-14T08:57:15.858Z,31.55
2022-12-14T09:04:02.773Z,32.25
2022-12-14T09:10:50.583Z,30.20
2022-12-14T09:17:34.487Z,30.33
2022-12-14T09:24:19.855Z,30.25
2022-12-14T09:31:05.417Z,35.75
2022-12-14T09:37:47.776Z,37.42
2022-12-14T09:44:51.247Z,34.70
2022-12-14T09:51:36.919Z,34.13
2022-12-14T09:58:22.403Z,34.35
2022-12-14T10:05:43.301Z,35.78
2022-12-14T10:13:10.951Z,40.67
2022-12-14T10:19:55.494Z,35.20
2022-12-14T10:26:53.135Z,38.80
2022-12-14T10:33:43.977Z,39.80
2022-12-14T10:40:33.999Z,39.33
2022-12-14T10:47:31.397Z,33.92
2022-12-14T10:54:28.112Z,35.38
2022-12-14T11:01:15.088Z,39.25
2022-12-14T11:07:57.686Z,40.95
2022-12-14T11:15:01.158Z,34.35
2022-12-14T11:21:44.153Z,36.83
2022-12-14T11:28:37.132Z,36.25
2022-12-14T11:35:21.347Z,37.08
2022-12-14T11:42:04.476Z,32.45
2022-12-14T11:48:48.916Z,36.88
2022-12-14T11:55:32.795Z,36.08
2022-12-14T12:02:35.228Z,35.00
2022-12-14T12:09:28.727Z,35.88
2022-12-14T12:16:15.058Z,37.70
2022-12-14T12:23:05.580Z,35.70
2022-12-14T12:30:10.868Z,35.78
2022-12-14T12:37:24.783Z,38.15
2022-12-14T12:44:32.599Z,35.67
2022-12-14T12:51:32.398Z,38.15
2022-12-14T12:58:29.236Z,41.03
2022-12-14T13:05:45.622Z,36.13
2022-12-14T13:12:27.064Z,45.63
2022-12-14T13:19:48.724Z,39.97
2022-12-14T13:26:56.625Z,43.35
2022-12-14T13:34:02.734Z,48.83
2022-12-14T13:40:47.884Z,48.47
2022-12-14T13:47:32.748Z,47.28
2022-12-14T13:54:37.644Z,48.70
2022-12-14T14:01:22.717Z,54.00
2022-12-14T14:08:33.356Z,47.13
2022-12-14T14:15:35.859Z,44.83
2022-12-14T14:22:27.455Z,44.88
2022-12-14T14:29:23.310Z,43.72
2022-12-14T14:36:24.422Z,42.28
2022-12-14T14:43:17.793Z,46.65
2022-12-14T14:50:21.644Z,44.47
2022-12-14T14:57:24.458Z,45.90
2022-12-14T15:04:19.983Z,45.88
2022-12-14T15:11:15.370Z,49.47
2022-12-14T15:18:31.943Z,50.47
2022-12-14T15:25:26.539Z,51.38
2022-12-14T15:32:17.479Z,48.58
2022-12-14T15:39:00.378Z,44.47
2022-12-14T15:45:45.993Z,44.90
2022-12-14T15:52:31.045Z,41.45
2022-12-14T15:59:17.874Z,37.97
2022-12-14T16:06:01.595Z,41.65
2022-12-14T16:12:47.248Z,38.25
2022-12-14T16:19:57.528Z,38.47
2022-12-14T16:26:38.690Z,38.70
2022-12-14T16:33:23.181Z,36.60
2022-12-14T16:40:06.217Z,42.25
2022-12-14T16:47:17.812Z,39.35
2022-12-14T16:54:02.248Z,57.08
2022-12-14T17:01:00.130Z,45.72
2022-12-14T17:07:42.520Z,43.83
2022-12-14T17:14:24.985Z,38.28
2022-12-14T17:21:15.540Z,31.45
2022-12-14T17:27:58.629Z,35.55
2022-12-14T17:34:41.675Z,40.22
2022-12-14T17:41:26.040Z,33.10
2022-12-14T17:48:16.263Z,34.70
2022-12-14T17:54:59.487Z,34.85
2022-12-14T18:01:42.047Z,37.75
2022-12-14T18:08:26.659Z,39.25
2022-12-14T18:15:31.559Z,35.45
2022-12-14T18:22:13.993Z,37.08
2022-12-14T18:28:57.808Z,36.55
2022-12-14T18:35:40.726Z,36.85
2022-12-14T18:42:23.125Z,39.05
2022-12-14T18:49:05.859Z,36.40
2022-12-14T18:55:49.010Z,37.97
2022-12-14T19:02:31.676Z,35.30
2022-12-14T19:09:14.649Z,33.45
2022-12-14T19:15:57.407Z,46.47
2022-12-14T19:22:39.894Z,37.78
2022-12-14T19:29:22.274Z,37.30
2022-12-14T19:36:06.476Z,37.00
2022-12-14T19:42:49.009Z,48.15
2022-12-14T19:49:31.368Z,49.65
2022-12-14T19:56:18.172Z,63.95
2022-12-14T20:03:00.651Z,67.35
2022-12-14T20:09:43.611Z,39.60
2022-12-14T20:16:27.317Z,39.97
2022-12-14T20:23:10.146Z,49.03
2022-12-14T20:29:52.553Z,42.63
2022-12-14T20:36:35.984Z,52.28
2022-12-14T20:43:18.576Z,46.88
2022-12-14T20:50:01.082Z,47.33
2022-12-14T20:56:44.111Z,63.58
2022-12-14T21:03:27.717Z,54.70
2022-12-14T21:10:10.718Z,43.58
2022-12-14T21:16:53.666Z,42.13
2022-12-14T21:23:36.256Z,50.40
2022-12-14T21:30:18.794Z,42.13
2022-12-14T21:37:01.189Z,40.55
2022-12-14T21:43:43.522Z,52.22
2022-12-14T21:50:25.980Z,42.08
2022-12-14T21:57:32.542Z,42.40
2022-12-14T22:04:14.936Z,40.55
2022-12-14T22:11:03.194Z,43.58
2022-12-14T22:17:45.827Z,42.58
2022-12-14T22:24:28.988Z,46.15
2022-12-14T22:31:11.635Z,48.30
2022-12-14T22:37:54.030Z,51.35
2022-12-14T22:44:36.797Z,50.25
2022-12-14T22:51:20.207Z,46.28
2022-12-14T22:58:03.124Z,44.88
2022-12-14T23:04:45.491Z,46.67
2022-12-14T23:11:51.654Z,50.03
2022-12-14T23:18:53.149Z,47.55
2022-12-14T23:25:54.160Z,48.88
2022-12-14T23:32:55.597Z,47.05
2022-12-14T23:39:56.494Z,43.58
2022-12-14T23:46:57.395Z,46.13
2022-12-14T23:53:58.250Z,43.40
